createdAt,value
2023-01-17T00:02:02.178Z,97747.56
2023-01-17T00:05:06.494Z,97747.66
2023-01-17T00:08:10.753Z,97739.53
2023-01-17T00:10:59.189Z,97736.00
2023-01-17T00:13:45.970Z,97725.84
2023-01-17T00:16:32.781Z,97723.41
2023-01-17T00:19:36.964Z,97725.25
2023-01-17T00:22:43.706Z,97718.88
2023-01-17T00:25:51.332Z,97722.75
2023-01-17T00:28:40.199Z,97717.31
2023-01-17T00:31:26.150Z,97719.00
2023-01-17T00:34:11.939Z,97708.13
2023-01-17T00:36:57.487Z,97703.47
2023-01-17T00:39:42.905Z,97715.72
2023-01-17T00:42:28.399Z,97708.28
2023-01-17T00:45:34.042Z,97706.06
2023-01-17T00:48:38.107Z,97705.75
2023-01-17T00:51:42.539Z,97708.44
2023-01-17T00:54:46.503Z,97702.28
2023-01-17T00:57:50.601Z,97694.91
2023-01-17T01:00:55.866Z,97698.13
2023-01-17T01:03:59.837Z,97692.34
2023-01-17T01:07:04.043Z,97691.81
2023-01-17T01:10:08.045Z,97700.19
2023-01-17T01:13:12.298Z,97701.88
2023-01-17T01:16:20.067Z,97697.31
2023-01-17T01:19:24.761Z,97696.84
2023-01-17T01:22:28.796Z,97683.03
2023-01-17T01:25:32.986Z,97673.50
2023-01-17T01:28:37.323Z,97678.16
2023-01-17T01:31:42.997Z,97674.84
2023-01-17T01:34:29.807Z,97674.00
2023-01-17T01:37:16.626Z,97673.00
2023-01-17T01:40:03.422Z,97673.78
2023-01-17T01:42:51.896Z,97668.13
2023-01-17T01:45:39.351Z,97668.50
2023-01-17T01:48:36.785Z,97673.34
2023-01-17T01:51:27.503Z,97661.81
2023-01-17T01:54:17.732Z,97663.13
2023-01-17T01:57:06.385Z,97653.72
2023-01-17T02:00:00.914Z,97659.06
2023-01-17T02:02:49.874Z,97658.28
2023-01-17T02:05:38.182Z,97647.69
2023-01-17T02:08:25.855Z,97634.75
2023-01-17T02:11:13.170Z,97642.53
2023-01-17T02:14:00.202Z,97639.75
2023-01-17T02:16:59.901Z,97630.06
2023-01-17T02:20:05.499Z,97641.84
2023-01-17T02:23:21.088Z,97631.22
2023-01-17T02:26:41.400Z,97633.81
2023-01-17T02:30:13.526Z,97633.31
2023-01-17T02:33:08.023Z,97628.38
2023-01-17T02:36:04.207Z,97638.16
2023-01-17T02:38:57.126Z,97633.22
2023-01-17T02:41:47.261Z,97625.22
2023-01-17T02:44:41.416Z,97623.06
2023-01-17T02:47:30.961Z,97619.38
2023-01-17T02:50:20.997Z,97623.47
2023-01-17T02:53:18.502Z,97619.47
2023-01-17T02:56:18.515Z,97629.84
2023-01-17T02:59:19.419Z,97628.78
2023-01-17T03:02:18.165Z,97622.25
2023-01-17T03:05:09.992Z,97629.69
2023-01-17T03:07:57.956Z,97632.91
2023-01-17T03:10:45.657Z,97634.22
2023-01-17T03:13:32.698Z,97628.38
2023-01-17T03:16:22.008Z,97625.69
2023-01-17T03:19:09.916Z,97625.84
2023-01-17T03:21:58.129Z,97621.88
2023-01-17T03:24:44.602Z,97629.81
2023-01-17T03:27:31.468Z,97631.50
2023-01-17T03:30:18.486Z,97629.28
2023-01-17T03:33:05.240Z,97632.34
2023-01-17T03:35:52.775Z,97629.25
2023-01-17T03:38:40.828Z,97636.09
2023-01-17T03:41:27.586Z,97633.16
2023-01-17T03:44:14.260Z,97628.06
2023-01-17T03:47:01.166Z,97629.00
2023-01-17T03:49:47.608Z,97625.47
2023-01-17T03:52:34.457Z,97619.03
2023-01-17T03:55:22.484Z,97619.38
2023-01-17T03:58:09.131Z,97620.06
2023-01-17T04:00:56.217Z,97608.31
2023-01-17T04:03:42.919Z,97622.44
2023-01-17T04:06:29.562Z,97621.41
2023-01-17T04:09:16.324Z,97619.31
2023-01-17T04:12:05.163Z,97618.63
2023-01-17T04:14:51.611Z,97616.78
2023-01-17T04:17:38.680Z,97618.41
2023-01-17T04:20:32.770Z,97611.97
2023-01-17T04:23:19.989Z,97619.91
2023-01-17T04:26:06.802Z,97624.75
2023-01-17T04:28:55.375Z,97611.72
2023-01-17T04:31:42.055Z,97604.88
2023-01-17T04:34:28.761Z,97623.66
2023-01-17T04:37:15.509Z,97625.16
2023-01-17T04:40:03.555Z,97629.31
2023-01-17T04:42:51.443Z,97616.19
2023-01-17T04:45:39.944Z,97625.38
2023-01-17T04:48:27.953Z,97631.16
2023-01-17T04:51:16.847Z,97629.34
2023-01-17T04:54:06.539Z,97635.69
2023-01-17T04:56:53.796Z,97639.56
2023-01-17T04:59:40.762Z,97508.88
2023-01-17T05:02:29.146Z,97647.16
2023-01-17T05:05:15.863Z,97610.03
2023-01-17T05:08:02.611Z,97652.66
2023-01-17T05:10:49.681Z,97644.47
2023-01-17T05:13:36.542Z,97650.06
2023-01-17T05:16:23.120Z,97661.78
2023-01-17T05:19:11.207Z,97660.03
2023-01-17T05:22:10.320Z,97667.03
2023-01-17T05:24:56.905Z,97673.75
2023-01-17T05:27:43.522Z,97673.66
2023-01-17T05:30:32.055Z,97680.75
2023-01-17T05:33:18.654Z,97673.31
2023-01-17T05:36:07.415Z,97672.63
2023-01-17T05:38:54.129Z,97674.91
2023-01-17T05:41:40.843Z,97667.69
2023-01-17T05:44:28.893Z,97676.00
2023-01-17T05:47:15.353Z,97682.84
2023-01-17T05:50:01.982Z,97687.66
2023-01-17T05:52:53.458Z,97689.00
2023-01-17T05:55:41.240Z,97698.19
2023-01-17T05:58:28.073Z,97692.53
2023-01-17T06:01:15.060Z,97701.53
2023-01-17T06:04:01.855Z,97702.34
2023-01-17T06:06:48.520Z,97707.25
2023-01-17T06:09:36.790Z,97704.06
2023-01-17T06:12:23.729Z,97715.66
2023-01-17T06:15:11.632Z,97720.88
2023-01-17T06:17:58.264Z,97718.28
2023-01-17T06:20:45.806Z,97662.78
2023-01-17T06:23:32.230Z,97719.97
2023-01-17T06:26:20.317Z,97726.03
2023-01-17T06:29:07.054Z,97735.50
2023-01-17T06:31:53.883Z,97725.97
2023-01-17T06:34:40.953Z,97731.97
2023-01-17T06:37:27.399Z,97735.44
2023-01-17T06:40:14.509Z,97733.66
2023-01-17T06:43:02.870Z,97730.72
2023-01-17T06:45:51.245Z,97732.03
2023-01-17T06:48:38.059Z,97735.50
2023-01-17T06:51:25.075Z,97748.88
2023-01-17T06:54:12.754Z,97744.28
2023-01-17T06:56:59.337Z,97746.91
2023-01-17T06:59:47.586Z,97750.13
2023-01-17T07:02:33.977Z,97760.69
2023-01-17T07:05:20.973Z,97759.53
2023-01-17T07:08:07.573Z,97771.00
2023-01-17T07:11:00.158Z,97779.47
2023-01-17T07:13:46.845Z,97786.56
2023-01-17T07:16:35.225Z,97791.63
2023-01-17T07:19:22.043Z,97793.06
2023-01-17T07:22:11.223Z,97801.44
2023-01-17T07:24:59.705Z,97800.91
2023-01-17T07:27:46.344Z,97808.38
2023-01-17T07:30:33.190Z,97806.75
2023-01-17T07:33:21.138Z,97812.94
2023-01-17T07:36:09.780Z,97790.19
2023-01-17T07:38:56.503Z,97812.59
2023-01-17T07:41:43.261Z,97809.72
2023-01-17T07:44:31.561Z,97813.00
2023-01-17T07:47:18.266Z,97815.56
2023-01-17T07:50:08.272Z,97815.78
2023-01-17T07:52:56.470Z,97820.72
2023-01-17T07:55:43.276Z,97810.06
2023-01-17T07:58:29.958Z,97812.59
2023-01-17T08:01:17.755Z,97815.31
2023-01-17T08:04:04.553Z,97804.06
2023-01-17T08:06:52.523Z,97824.66
2023-01-17T08:09:39.384Z,97827.63
2023-01-17T08:12:27.137Z,97837.69
2023-01-17T08:15:14.203Z,97830.59
2023-01-17T08:18:00.616Z,97840.22
2023-01-17T08:20:47.595Z,97836.50
2023-01-17T08:23:35.707Z,97838.03
2023-01-17T08:26:23.463Z,97835.44
2023-01-17T08:29:11.075Z,97824.50
2023-01-17T08:31:57.941Z,97844.81
2023-01-17T08:34:44.746Z,97840.25
2023-01-17T08:37:31.453Z,97850.50
2023-01-17T08:40:20.303Z,97852.19
2023-01-17T08:43:06.731Z,97852.72
2023-01-17T08:45:56.159Z,97863.19
2023-01-17T08:48:42.864Z,97862.03
2023-01-17T08:51:31.647Z,97865.41
2023-01-17T08:54:18.441Z,97869.41
2023-01-17T08:57:06.592Z,97874.88
2023-01-17T08:59:53.242Z,97879.56
2023-01-17T09:02:39.956Z,97888.03
2023-01-17T09:05:27.081Z,97890.47
2023-01-17T09:08:13.640Z,97891.50
2023-01-17T09:11:04.978Z,97821.47
2023-01-17T09:13:53.195Z,97897.06
2023-01-17T09:16:39.993Z,97908.22
2023-01-17T09:19:27.033Z,97908.84
2023-01-17T09:22:13.743Z,97905.38
2023-01-17T09:25:00.499Z,97916.69
2023-01-17T09:27:47.800Z,97912.22
2023-01-17T09:30:36.080Z,97923.63
2023-01-17T09:33:24.540Z,97918.22
2023-01-17T09:36:11.310Z,97923.56
2023-01-17T09:38:58.722Z,97932.59
2023-01-17T09:41:53.373Z,97862.56
2023-01-17T09:44:43.947Z,97936.06
2023-01-17T09:47:41.497Z,97934.53
2023-01-17T09:50:32.200Z,97948.78
2023-01-17T09:53:20.942Z,97953.66
2023-01-17T09:56:13.459Z,97960.56
2023-01-17T09:59:19.300Z,97967.91
2023-01-17T10:02:22.939Z,97972.69
2023-01-17T10:05:33.377Z,97979.78
2023-01-17T10:08:33.837Z,97987.63
2023-01-17T10:11:39.801Z,97982.09
2023-01-17T10:14:47.428Z,97998.41
2023-01-17T10:17:44.884Z,97999.44
2023-01-17T10:20:51.382Z,97986.94
2023-01-17T10:24:03.660Z,98005.66
2023-01-17T10:26:53.652Z,97963.13
2023-01-17T10:29:41.297Z,98013.13
2023-01-17T10:32:34.071Z,98012.13
2023-01-17T10:35:23.334Z,97998.25
2023-01-17T10:38:16.220Z,98029.63
2023-01-17T10:41:08.743Z,98029.47
2023-01-17T10:44:13.046Z,98035.31
2023-01-17T10:47:07.749Z,98033.34
2023-01-17T10:49:57.968Z,98042.91
2023-01-17T10:52:53.411Z,98040.34
2023-01-17T10:55:46.980Z,98033.50
2023-01-17T10:58:33.581Z,98046.75
2023-01-17T11:01:21.993Z,98057.09
2023-01-17T11:04:19.004Z,98051.47
2023-01-17T11:07:14.834Z,98045.59
2023-01-17T11:10:01.583Z,98044.75
2023-01-17T11:12:49.499Z,98042.13
2023-01-17T11:15:40.678Z,98055.25
2023-01-17T11:18:29.847Z,98066.28
2023-01-17T11:21:18.314Z,98066.59
2023-01-17T11:24:12.327Z,98069.28
2023-01-17T11:26:59.620Z,98073.06
2023-01-17T11:29:47.637Z,98078.53
2023-01-17T11:32:35.431Z,98073.13
2023-01-17T11:35:25.682Z,98076.22
2023-01-17T11:38:21.702Z,98082.00
2023-01-17T11:41:20.375Z,98081.63
2023-01-17T11:44:23.386Z,98080.22
2023-01-17T11:47:20.469Z,98088.34
2023-01-17T11:50:24.935Z,98094.44
2023-01-17T11:53:25.387Z,98095.50
2023-01-17T11:56:19.632Z,98104.66
2023-01-17T11:59:25.222Z,98106.56
2023-01-17T12:02:44.696Z,98114.66
2023-01-17T12:05:41.739Z,98125.53
2023-01-17T12:08:55.666Z,98128.94
2023-01-17T12:12:05.510Z,98138.34
2023-01-17T12:15:02.799Z,98143.53
2023-01-17T12:18:10.904Z,98143.44
2023-01-17T12:21:07.752Z,98158.00
2023-01-17T12:24:07.631Z,98163.44
2023-01-17T12:27:04.571Z,98170.19
2023-01-17T12:30:03.494Z,98163.91
2023-01-17T12:33:08.074Z,98176.59
2023-01-17T12:35:58.603Z,98177.22
2023-01-17T12:38:47.849Z,98178.44
2023-01-17T12:41:37.903Z,98181.16
2023-01-17T12:44:36.915Z,98191.81
2023-01-17T12:47:23.911Z,98194.38
2023-01-17T12:50:20.380Z,98199.69
2023-01-17T12:53:19.509Z,98197.22
2023-01-17T12:56:13.487Z,98207.28
2023-01-17T12:59:09.665Z,98205.97
2023-01-17T13:01:58.619Z,98208.69
2023-01-17T13:04:58.867Z,98197.09
2023-01-17T13:07:52.831Z,98199.09
2023-01-17T13:10:46.227Z,98203.84
2023-01-17T13:13:35.749Z,98207.16
2023-01-17T13:16:31.292Z,98203.34
2023-01-17T13:19:27.260Z,98203.53
2023-01-17T13:22:18.327Z,98225.56
2023-01-17T13:25:24.208Z,98218.63
2023-01-17T13:28:23.048Z,98226.56
2023-01-17T13:31:28.937Z,98227.25
2023-01-17T13:34:41.381Z,98235.63
2023-01-17T13:37:55.686Z,98237.47
2023-01-17T13:40:51.508Z,98247.09
2023-01-17T13:43:40.768Z,98258.72
2023-01-17T13:46:31.187Z,98265.34
2023-01-17T13:49:34.696Z,98275.72
2023-01-17T13:52:35.864Z,98280.88
2023-01-17T13:55:47.893Z,98280.94
2023-01-17T13:58:58.356Z,98284.72
2023-01-17T14:01:54.754Z,98293.19
2023-01-17T14:05:10.836Z,98295.22
2023-01-17T14:08:00.638Z,98301.75
2023-01-17T14:10:51.284Z,98290.56
2023-01-17T14:13:39.824Z,98306.34
2023-01-17T14:16:28.987Z,98309.09
2023-01-17T14:19:27.017Z,98307.25
2023-01-17T14:22:25.418Z,98304.63
2023-01-17T14:25:17.625Z,98315.09
2023-01-17T14:28:20.265Z,98327.63
2023-01-17T14:31:11.860Z,98339.41
2023-01-17T14:34:13.156Z,98344.44
2023-01-17T14:37:06.521Z,98348.38
2023-01-17T14:39:53.103Z,98349.34
2023-01-17T14:42:40.267Z,98346.47
2023-01-17T14:45:32.681Z,98352.75
2023-01-17T14:48:21.659Z,98373.72
2023-01-17T14:51:14.440Z,98377.50
2023-01-17T14:54:05.341Z,98381.53
2023-01-17T14:56:51.778Z,98382.50
2023-01-17T14:59:38.425Z,98377.19
2023-01-17T15:02:26.765Z,98385.91
2023-01-17T15:05:16.353Z,98386.63
2023-01-17T15:08:03.036Z,98385.41
2023-01-17T15:10:52.574Z,98391.78
2023-01-17T15:13:45.132Z,98396.97
2023-01-17T15:16:34.419Z,98398.06
2023-01-17T15:19:23.617Z,98403.41
2023-01-17T15:22:10.943Z,98411.81
2023-01-17T15:24:58.857Z,98410.63
2023-01-17T15:27:45.506Z,98413.56
2023-01-17T15:30:32.053Z,98412.22
2023-01-17T15:33:21.208Z,98417.66
2023-01-17T15:36:15.128Z,98427.44
2023-01-17T15:39:05.267Z,98429.31
2023-01-17T15:41:54.491Z,98438.47
2023-01-17T15:44:48.435Z,98430.13
2023-01-17T15:47:39.172Z,98428.84
2023-01-17T15:50:30.331Z,98436.28
2023-01-17T15:53:32.562Z,98426.63
2023-01-17T15:56:28.175Z,98425.56
2023-01-17T15:59:24.469Z,98434.69
2023-01-17T16:02:27.598Z,98435.72
2023-01-17T16:05:43.646Z,98444.88
2023-01-17T16:08:39.764Z,98448.31
2023-01-17T16:11:26.608Z,98450.97
2023-01-17T16:14:13.513Z,98450.53
2023-01-17T16:17:01.678Z,98454.16
2023-01-17T16:19:48.111Z,98455.88
2023-01-17T16:22:35.329Z,98457.72
2023-01-17T16:25:25.574Z,98461.63
2023-01-17T16:28:12.805Z,98460.13
2023-01-17T16:30:59.300Z,98458.22
2023-01-17T16:33:46.238Z,98458.34
2023-01-17T16:36:35.001Z,98452.91
2023-01-17T16:39:22.397Z,98447.94
2023-01-17T16:42:12.929Z,98452.53
2023-01-17T16:44:59.723Z,98454.38
2023-01-17T16:47:48.393Z,98456.13
2023-01-17T16:50:34.862Z,98454.69
2023-01-17T16:53:24.829Z,98456.47
2023-01-17T16:56:13.728Z,98456.00
2023-01-17T16:59:01.695Z,98465.84
2023-01-17T17:01:50.490Z,98465.88
2023-01-17T17:04:36.878Z,98466.81
2023-01-17T17:07:23.866Z,98466.78
2023-01-17T17:10:11.426Z,98469.47
2023-01-17T17:12:58.207Z,98473.84
2023-01-17T17:15:46.354Z,98477.44
2023-01-17T17:18:33.247Z,98471.38
2023-01-17T17:21:20.296Z,98476.66
2023-01-17T17:24:07.596Z,98477.47
2023-01-17T17:26:54.378Z,98489.06
2023-01-17T17:29:41.361Z,98489.38
2023-01-17T17:32:29.564Z,98490.25
2023-01-17T17:35:16.239Z,98501.50
2023-01-17T17:38:07.103Z,98504.00
2023-01-17T17:40:53.675Z,98506.72
2023-01-17T17:43:41.639Z,98514.59
2023-01-17T17:46:34.050Z,98518.47
2023-01-17T17:49:26.489Z,98523.09
2023-01-17T17:52:14.782Z,98528.19
2023-01-17T17:55:01.718Z,98517.69
2023-01-17T17:57:48.490Z,98519.47
2023-01-17T18:00:35.201Z,98529.19
2023-01-17T18:03:22.022Z,98529.50
2023-01-17T18:06:13.098Z,98526.00
2023-01-17T18:09:00.130Z,98519.19
2023-01-17T18:11:46.815Z,98515.72
2023-01-17T18:14:34.909Z,98534.19
2023-01-17T18:17:23.383Z,98539.63
2023-01-17T18:20:12.325Z,98540.66
2023-01-17T18:23:02.502Z,98540.84
2023-01-17T18:25:50.162Z,98543.50
2023-01-17T18:28:42.633Z,98539.22
2023-01-17T18:31:32.140Z,98543.72
2023-01-17T18:34:27.688Z,98537.59
2023-01-17T18:37:15.427Z,98534.19
2023-01-17T18:40:13.685Z,98535.72
2023-01-17T18:43:04.090Z,98530.63
2023-01-17T18:45:54.047Z,98525.81
2023-01-17T18:48:41.593Z,98553.38
2023-01-17T18:51:33.691Z,98545.56
2023-01-17T18:54:22.111Z,98547.31
2023-01-17T18:57:10.312Z,98559.53
2023-01-17T18:59:57.272Z,98554.25
2023-01-17T19:02:44.036Z,98561.25
2023-01-17T19:05:30.609Z,98563.84
2023-01-17T19:08:17.860Z,98572.41
2023-01-17T19:11:05.692Z,98520.06
2023-01-17T19:13:53.983Z,98570.72
2023-01-17T19:16:41.984Z,98572.88
2023-01-17T19:19:28.518Z,98580.78
2023-01-17T19:22:15.285Z,98573.94
2023-01-17T19:25:02.298Z,98574.84
2023-01-17T19:27:48.959Z,98577.22
2023-01-17T19:30:56.293Z,98583.44
2023-01-17T19:33:47.004Z,98586.22
2023-01-17T19:36:36.563Z,98593.38
2023-01-17T19:39:25.509Z,98593.66
2023-01-17T19:42:15.978Z,98598.97
2023-01-17T19:45:03.131Z,98607.00
2023-01-17T19:47:51.186Z,98599.34
2023-01-17T19:50:38.014Z,98588.22
2023-01-17T19:53:25.285Z,98602.81
2023-01-17T19:56:14.678Z,98602.44
2023-01-17T19:59:02.248Z,98598.47
2023-01-17T20:01:49.846Z,98607.22
2023-01-17T20:04:38.160Z,98604.91
2023-01-17T20:07:24.756Z,98616.13
2023-01-17T20:10:12.410Z,98613.63
2023-01-17T20:12:59.027Z,98613.38
2023-01-17T20:15:45.882Z,98608.94
2023-01-17T20:18:34.614Z,98604.34
2023-01-17T20:21:24.338Z,98615.75
2023-01-17T20:24:13.613Z,98593.72
2023-01-17T20:27:00.834Z,98618.75
2023-01-17T20:29:48.543Z,98625.78
2023-01-17T20:32:35.176Z,98620.63
2023-01-17T20:35:22.091Z,98616.41
2023-01-17T20:38:10.572Z,98622.56
2023-01-17T20:40:57.191Z,98614.94
2023-01-17T20:43:45.149Z,98614.13
2023-01-17T20:46:35.667Z,98621.91
2023-01-17T20:49:22.693Z,98619.22
2023-01-17T20:52:10.268Z,98624.34
2023-01-17T20:54:58.745Z,98622.66
2023-01-17T20:57:45.634Z,98638.28
2023-01-17T21:00:32.567Z,98644.38
2023-01-17T21:03:19.370Z,98640.16
2023-01-17T21:06:08.485Z,98650.56
2023-01-17T21:08:55.079Z,98652.25
2023-01-17T21:11:43.500Z,98657.16
2023-01-17T21:14:42.447Z,98658.13
2023-01-17T21:17:30.489Z,98665.03
2023-01-17T21:20:17.534Z,98674.63
2023-01-17T21:23:08.522Z,98683.38
2023-01-17T21:25:59.211Z,98690.31
2023-01-17T21:28:48.400Z,98696.38
2023-01-17T21:31:37.378Z,98706.22
2023-01-17T21:34:25.543Z,98713.41
2023-01-17T21:37:12.644Z,98719.69
2023-01-17T21:40:00.329Z,98724.06
2023-01-17T21:42:46.939Z,98729.22
2023-01-17T21:45:37.473Z,98737.06
2023-01-17T21:48:24.267Z,98738.88
2023-01-17T21:51:11.718Z,98684.91
2023-01-17T21:53:58.519Z,98728.16
2023-01-17T21:57:02.673Z,98741.41
2023-01-17T21:59:49.464Z,98749.09
2023-01-17T22:02:37.669Z,98752.63
2023-01-17T22:05:24.473Z,98750.09
2023-01-17T22:08:15.308Z,98742.44
2023-01-17T22:11:07.336Z,98747.69
2023-01-17T22:13:54.419Z,98745.06
2023-01-17T22:16:41.237Z,98748.38
2023-01-17T22:19:29.436Z,98741.41
2023-01-17T22:22:16.112Z,98744.03
2023-01-17T22:25:03.249Z,98750.16
2023-01-17T22:27:49.838Z,98741.59
2023-01-17T22:30:37.404Z,98751.88
2023-01-17T22:33:23.785Z,98754.59
2023-01-17T22:36:14.715Z,98751.06
2023-01-17T22:39:02.149Z,98754.34
2023-01-17T22:41:48.821Z,98749.38
2023-01-17T22:44:35.734Z,98748.44
2023-01-17T22:47:22.603Z,98749.25
2023-01-17T22:50:10.890Z,98744.22
2023-01-17T22:52:59.238Z,98747.75
2023-01-17T22:55:45.947Z,98748.22
2023-01-17T22:58:33.785Z,98692.66
2023-01-17T23:01:21.983Z,98735.75
2023-01-17T23:04:13.382Z,98746.97
2023-01-17T23:07:00.161Z,98746.13
2023-01-17T23:09:48.486Z,98742.72
2023-01-17T23:12:35.544Z,98747.06
2023-01-17T23:15:39.689Z,98755.81
2023-01-17T23:18:43.015Z,98742.81
2023-01-17T23:21:49.945Z,98732.41
2023-01-17T23:24:39.580Z,98730.78
2023-01-17T23:27:47.484Z,98727.38
2023-01-17T23:30:37.537Z,98723.06
2023-01-17T23:33:24.175Z,98738.56
2023-01-17T23:36:11.880Z,98730.78
2023-01-17T23:38:58.493Z,98738.59
2023-01-17T23:42:02.482Z,98740.38
2023-01-17T23:44:50.603Z,98724.03
2023-01-17T23:47:37.576Z,98727.41
2023-01-17T23:50:24.406Z,98717.84
2023-01-17T23:53:15.428Z,98714.44
2023-01-17T23:56:07.264Z,98710.16
2023-01-17T23:58:54.031Z,98699.84
